createdAt,value
2022-10-07T00:00:43.351Z,99483.91
2022-10-07T00:03:52.000Z,99485.56
2022-10-07T00:07:00.300Z,99482.06
2022-10-07T00:10:11.038Z,99487.28
2022-10-07T00:13:16.705Z,99478.47
2022-10-07T00:16:30.415Z,99474.81
2022-10-07T00:19:36.536Z,99479.47
2022-10-07T00:22:48.010Z,99472.88
2022-10-07T00:25:53.946Z,99478.63
2022-10-07T00:29:00.414Z,99466.56
2022-10-07T00:32:17.786Z,99470.78
2022-10-07T00:35:33.469Z,99471.06
2022-10-07T00:38:41.750Z,99466.31
2022-10-07T00:41:54.015Z,99462.13
2022-10-07T00:44:59.633Z,99462.81
2022-10-07T00:48:05.339Z,99458.63
2022-10-07T00:51:22.769Z,99454.13
2022-10-07T00:54:31.900Z,99457.66
2022-10-07T00:57:43.637Z,99456.25
2022-10-07T01:00:51.223Z,99450.81
2022-10-07T01:03:57.950Z,99448.13
2022-10-07T01:07:03.954Z,99450.81
2022-10-07T01:10:18.903Z,99441.56
2022-10-07T01:13:38.359Z,99445.84
2022-10-07T01:17:04.993Z,99440.41
2022-10-07T01:20:48.378Z,99430.72
2022-10-07T01:24:20.710Z,99443.06
2022-10-07T01:27:33.043Z,99428.53
2022-10-07T01:30:47.517Z,99427.09
2022-10-07T01:33:57.823Z,99418.59
2022-10-07T01:37:09.950Z,99421.78
2022-10-07T01:40:23.415Z,99418.72
2022-10-07T01:43:31.970Z,99414.38
2022-10-07T01:46:38.157Z,99409.47
2022-10-07T01:49:46.283Z,99410.16
2022-10-07T01:53:33.625Z,99413.00
2022-10-07T01:57:08.981Z,99416.75
2022-10-07T02:00:21.139Z,99409.34
2022-10-07T02:03:51.514Z,99402.19
2022-10-07T02:07:13.850Z,99402.63
2022-10-07T02:10:32.101Z,99400.66
2022-10-07T02:13:47.035Z,99400.78
2022-10-07T02:17:08.005Z,99388.47
2022-10-07T02:20:26.804Z,99390.47
2022-10-07T02:23:40.561Z,99389.34
2022-10-07T02:26:50.487Z,99395.50
2022-10-07T02:30:06.144Z,99390.16
2022-10-07T02:33:17.339Z,99387.50
2022-10-07T02:36:32.779Z,99374.66
2022-10-07T02:39:40.422Z,99370.59
2022-10-07T02:42:59.741Z,99376.47
2022-10-07T02:46:13.945Z,99380.78
2022-10-07T02:49:29.220Z,99373.94
2022-10-07T02:52:46.813Z,99381.06
2022-10-07T02:55:59.674Z,99375.06
2022-10-07T02:59:17.660Z,99379.53
2022-10-07T03:02:35.254Z,99378.41
2022-10-07T03:05:43.853Z,99369.47
2022-10-07T03:08:52.924Z,99379.81
2022-10-07T03:11:58.642Z,99372.13
2022-10-07T03:15:05.655Z,99367.81
2022-10-07T03:18:26.910Z,99366.25
2022-10-07T03:21:44.252Z,99364.72
2022-10-07T03:24:52.125Z,99360.38
2022-10-07T03:27:57.938Z,99360.50
2022-10-07T03:31:10.408Z,99362.06
2022-10-07T03:34:20.858Z,99354.66
2022-10-07T03:37:33.772Z,99360.38
2022-10-07T03:40:39.974Z,99356.09
2022-10-07T03:43:46.258Z,99348.25
2022-10-07T03:46:56.463Z,99354.41
2022-10-07T03:50:11.010Z,99345.31
2022-10-07T03:53:25.828Z,99347.94
2022-10-07T03:56:31.899Z,99340.38
2022-10-07T03:59:44.068Z,99338.56
2022-10-07T04:02:51.652Z,99332.66
2022-10-07T04:06:01.736Z,99332.75
2022-10-07T04:09:14.751Z,99323.25
2022-10-07T04:12:22.943Z,99321.00
2022-10-07T04:15:31.586Z,99312.31
2022-10-07T04:18:37.596Z,99317.06
2022-10-07T04:21:43.539Z,99308.78
2022-10-07T04:25:11.970Z,99312.00
2022-10-07T04:28:21.954Z,99304.84
2022-10-07T04:31:31.329Z,99300.81
2022-10-07T04:34:42.506Z,99297.84
2022-10-07T04:37:51.410Z,99301.34
2022-10-07T04:41:00.654Z,99305.53
2022-10-07T04:44:06.475Z,99311.16
2022-10-07T04:47:18.018Z,99303.47
2022-10-07T04:50:23.958Z,99293.13
2022-10-07T04:53:32.040Z,99298.81
2022-10-07T04:56:42.603Z,99304.28
2022-10-07T04:59:51.095Z,99290.69
2022-10-07T05:03:02.406Z,99290.38
2022-10-07T05:06:10.739Z,99294.59
2022-10-07T05:09:18.566Z,99292.03
2022-10-07T05:12:28.837Z,99293.72
2022-10-07T05:15:37.094Z,99288.13
2022-10-07T05:18:43.150Z,99287.81
2022-10-07T05:21:51.939Z,99280.34
2022-10-07T05:24:58.003Z,99274.28
2022-10-07T05:28:07.181Z,99281.31
2022-10-07T05:31:17.292Z,99278.47
2022-10-07T05:34:27.778Z,99286.31
2022-10-07T05:37:34.538Z,99288.16
2022-10-07T05:40:40.180Z,99278.69
2022-10-07T05:43:48.489Z,99281.88
2022-10-07T05:46:56.467Z,99278.91
2022-10-07T05:50:03.063Z,99283.22
2022-10-07T05:53:09.148Z,99293.03
2022-10-07T05:56:21.679Z,99280.19
2022-10-07T05:59:31.274Z,99277.84
2022-10-07T06:02:39.076Z,99280.28
2022-10-07T06:05:45.824Z,99284.00
2022-10-07T06:08:53.053Z,99283.13
2022-10-07T06:12:12.154Z,99281.19
2022-10-07T06:15:21.421Z,99279.69
2022-10-07T06:18:27.958Z,99284.59
2022-10-07T06:21:33.557Z,99281.06
2022-10-07T06:24:42.451Z,99282.00
2022-10-07T06:27:53.761Z,99278.41
2022-10-07T06:31:07.785Z,99276.38
2022-10-07T06:34:15.343Z,99273.84
2022-10-07T06:37:21.123Z,99271.19
2022-10-07T06:40:27.188Z,99273.81
2022-10-07T06:43:35.701Z,99275.34
2022-10-07T06:46:49.603Z,99273.53
2022-10-07T06:49:57.901Z,99263.91
2022-10-07T06:53:03.579Z,99261.94
2022-10-07T06:56:15.920Z,99273.59
2022-10-07T06:59:22.599Z,99263.09
2022-10-07T07:02:39.373Z,99266.72
2022-10-07T07:05:47.855Z,99273.22
2022-10-07T07:09:01.013Z,99265.94
2022-10-07T07:12:08.287Z,99266.59
2022-10-07T07:15:18.509Z,99269.03
2022-10-07T07:18:29.278Z,99267.66
2022-10-07T07:21:38.430Z,99256.31
2022-10-07T07:24:44.725Z,99258.09
2022-10-07T07:27:56.805Z,99257.03
2022-10-07T07:31:03.979Z,99254.69
2022-10-07T07:34:16.705Z,99243.84
2022-10-07T07:37:25.009Z,99244.59
2022-10-07T07:40:35.273Z,99246.41
2022-10-07T07:43:41.248Z,99247.06
2022-10-07T07:46:54.004Z,99251.09
2022-10-07T07:50:05.392Z,99241.25
2022-10-07T07:53:12.483Z,99231.19
2022-10-07T07:56:18.845Z,99235.50
2022-10-07T07:59:26.875Z,99234.72
2022-10-07T08:02:35.327Z,99225.53
2022-10-07T08:05:43.945Z,99217.53
2022-10-07T08:08:59.041Z,99213.91
2022-10-07T08:12:05.576Z,99212.81
2022-10-07T08:15:19.637Z,99214.22
2022-10-07T08:18:25.515Z,99212.91
2022-10-07T08:21:35.814Z,99206.69
2022-10-07T08:24:43.325Z,99199.06
2022-10-07T08:27:50.833Z,99205.53
2022-10-07T08:30:58.143Z,99205.06
2022-10-07T08:34:06.581Z,99193.94
2022-10-07T08:37:15.209Z,99190.03
2022-10-07T08:40:21.379Z,99188.72
2022-10-07T08:43:28.548Z,99193.25
2022-10-07T08:46:41.640Z,99196.53
2022-10-07T08:50:08.073Z,99199.59
2022-10-07T08:53:44.719Z,99199.69
2022-10-07T08:57:24.937Z,99201.09
2022-10-07T09:01:04.680Z,99187.63
2022-10-07T09:04:56.989Z,99195.16
2022-10-07T09:08:32.680Z,99192.81
2022-10-07T09:12:06.551Z,99192.31
2022-10-07T09:15:44.406Z,99186.72
2022-10-07T09:19:25.668Z,99182.28
2022-10-07T09:22:57.741Z,99179.69
2022-10-07T09:26:23.302Z,99176.41
2022-10-07T09:29:52.100Z,99166.88
2022-10-07T09:33:23.229Z,99168.28
2022-10-07T09:37:23.243Z,99155.56
2022-10-07T09:41:06.926Z,99155.03
2022-10-07T09:44:36.105Z,99153.59
2022-10-07T09:48:10.567Z,99153.34
2022-10-07T09:51:39.860Z,99151.78
2022-10-07T09:55:37.906Z,99152.41
2022-10-07T09:59:23.310Z,99152.38
2022-10-07T10:03:06.209Z,99148.72
2022-10-07T10:06:32.416Z,99130.44
2022-10-07T10:10:21.056Z,99128.34
2022-10-07T10:13:46.900Z,99125.44
2022-10-07T10:17:07.653Z,99132.28
2022-10-07T10:20:36.236Z,99122.88
2022-10-07T10:23:50.031Z,99118.50
2022-10-07T10:27:07.294Z,99109.38
2022-10-07T10:30:24.634Z,99111.69
2022-10-07T10:33:41.557Z,99106.69
2022-10-07T10:37:03.817Z,99096.59
2022-10-07T10:40:33.580Z,99092.41
2022-10-07T10:44:10.061Z,99087.78
2022-10-07T10:47:30.972Z,99079.50
2022-10-07T10:50:54.425Z,99081.31
2022-10-07T10:54:24.107Z,99065.00
2022-10-07T10:57:59.317Z,99062.59
2022-10-07T11:01:29.578Z,99050.47
2022-10-07T11:04:51.276Z,99044.16
2022-10-07T11:08:17.137Z,99046.81
2022-10-07T11:11:26.909Z,99033.09
2022-10-07T11:14:51.220Z,99025.31
2022-10-07T11:18:09.141Z,99018.97
2022-10-07T11:21:25.082Z,99016.75
2022-10-07T11:24:41.443Z,99014.13
2022-10-07T11:27:56.188Z,99011.06
2022-10-07T11:31:15.985Z,99004.88
2022-10-07T11:34:27.877Z,98998.09
2022-10-07T11:37:50.523Z,98984.41
2022-10-07T11:41:03.398Z,98977.22
2022-10-07T11:44:27.652Z,98975.91
2022-10-07T11:47:43.541Z,98976.50
2022-10-07T11:51:13.024Z,98973.81
2022-10-07T11:54:27.722Z,98966.63
2022-10-07T11:57:39.980Z,98957.56
2022-10-07T12:00:48.240Z,98956.69
2022-10-07T12:03:55.836Z,98950.88
2022-10-07T12:07:38.624Z,98949.53
2022-10-07T12:10:48.719Z,98940.56
2022-10-07T12:13:56.780Z,98941.09
2022-10-07T12:17:28.432Z,98936.38
2022-10-07T12:20:59.708Z,98928.72
2022-10-07T12:24:18.782Z,98923.88
2022-10-07T12:27:32.532Z,98928.97
2022-10-07T12:30:53.590Z,98921.13
2022-10-07T12:34:13.405Z,98915.13
2022-10-07T12:37:51.994Z,98915.25
2022-10-07T12:41:26.137Z,98911.25
2022-10-07T12:44:43.760Z,98899.69
2022-10-07T12:47:56.663Z,98888.34
2022-10-07T12:51:14.369Z,98894.47
2022-10-07T12:54:28.113Z,98892.13
2022-10-07T12:57:43.602Z,98884.13
2022-10-07T13:01:16.159Z,98870.50
2022-10-07T13:05:01.958Z,98873.13
2022-10-07T13:09:03.396Z,98868.16
2022-10-07T13:12:51.493Z,98855.50
2022-10-07T13:16:30.276Z,98854.91
2022-10-07T13:19:52.542Z,98854.44
2022-10-07T13:22:59.554Z,98843.56
2022-10-07T13:26:08.745Z,98833.13
2022-10-07T13:29:28.004Z,98831.81
2022-10-07T13:32:39.565Z,98821.22
2022-10-07T13:35:46.210Z,98821.31
2022-10-07T13:38:55.582Z,98817.56
2022-10-07T13:42:08.130Z,98812.59
2022-10-07T13:45:18.849Z,98801.84
2022-10-07T13:48:29.564Z,98799.97
2022-10-07T13:51:40.874Z,98804.03
2022-10-07T13:54:54.256Z,98799.31
2022-10-07T13:58:07.707Z,98789.16
2022-10-07T14:01:14.079Z,98784.00
2022-10-07T14:04:29.349Z,98777.34
2022-10-07T14:07:35.144Z,98766.97
2022-10-07T14:10:59.842Z,98770.81
2022-10-07T14:14:08.307Z,98758.78
2022-10-07T14:17:36.076Z,98747.59
2022-10-07T14:20:46.267Z,98748.00
2022-10-07T14:23:52.632Z,98746.59
2022-10-07T14:26:58.694Z,98739.78
2022-10-07T14:30:52.000Z,98736.75
2022-10-07T14:34:24.442Z,98736.91
2022-10-07T14:37:31.977Z,98726.44
2022-10-07T14:40:39.443Z,98722.97
2022-10-07T14:43:49.605Z,98719.25
2022-10-07T14:47:12.151Z,98714.03
2022-10-07T14:50:26.279Z,98725.97
2022-10-07T14:53:32.632Z,98719.00
2022-10-07T14:56:40.076Z,98712.63
2022-10-07T14:59:47.369Z,98707.41
2022-10-07T15:02:57.163Z,98707.38
2022-10-07T15:06:03.012Z,98702.34
2022-10-07T15:09:08.784Z,98704.78
2022-10-07T15:12:17.767Z,98700.03
2022-10-07T15:15:23.651Z,98705.91
2022-10-07T15:18:32.092Z,98704.69
2022-10-07T15:21:38.479Z,98701.41
2022-10-07T15:24:46.257Z,98697.97
2022-10-07T15:27:52.034Z,98695.25
2022-10-07T15:31:14.460Z,98700.22
2022-10-07T15:34:26.316Z,98701.19
2022-10-07T15:37:32.491Z,98685.81
2022-10-07T15:40:53.937Z,98696.44
2022-10-07T15:44:00.916Z,98688.63
2022-10-07T15:47:06.976Z,98686.50
2022-10-07T15:50:21.652Z,98686.72
2022-10-07T15:53:28.512Z,98678.09
2022-10-07T15:56:34.755Z,98679.53
2022-10-07T15:59:43.156Z,98672.81
2022-10-07T16:02:49.305Z,98679.31
2022-10-07T16:06:03.078Z,98672.94
2022-10-07T16:09:09.664Z,98672.59
2022-10-07T16:12:17.229Z,98671.22
2022-10-07T16:15:23.666Z,98668.41
2022-10-07T16:18:48.710Z,98671.38
2022-10-07T16:22:10.241Z,98660.91
2022-10-07T16:25:26.742Z,98660.72
2022-10-07T16:28:44.879Z,98659.47
2022-10-07T16:31:57.186Z,98657.38
2022-10-07T16:35:31.192Z,98659.69
2022-10-07T16:38:40.468Z,98656.03
2022-10-07T16:41:46.905Z,98658.56
2022-10-07T16:44:56.042Z,98652.41
2022-10-07T16:48:08.203Z,98646.00
2022-10-07T16:51:17.264Z,98644.72
2022-10-07T16:54:30.107Z,98645.19
2022-10-07T16:57:37.604Z,98650.09
2022-10-07T17:00:51.756Z,98649.09
2022-10-07T17:04:03.898Z,98644.31
2022-10-07T17:07:09.541Z,98645.53
2022-10-07T17:10:18.069Z,98641.78
2022-10-07T17:13:23.687Z,98643.00
2022-10-07T17:16:33.238Z,98637.41
2022-10-07T17:19:39.525Z,98639.91
2022-10-07T17:22:45.328Z,98641.78
2022-10-07T17:25:53.586Z,98639.72
2022-10-07T17:29:18.382Z,98637.25
2022-10-07T17:32:27.711Z,98629.59
2022-10-07T17:35:35.058Z,98629.19
2022-10-07T17:38:41.729Z,98625.25
2022-10-07T17:41:50.986Z,98632.25
2022-10-07T17:44:56.526Z,98633.72
2022-10-07T17:48:02.102Z,98632.44
2022-10-07T17:51:10.048Z,98626.03
2022-10-07T17:54:17.625Z,98622.91
2022-10-07T17:57:25.987Z,98626.41
2022-10-07T18:00:32.141Z,98622.47
2022-10-07T18:03:45.940Z,98628.38
2022-10-07T18:06:55.744Z,98613.72
2022-10-07T18:10:08.316Z,98608.97
2022-10-07T18:13:37.417Z,98610.13
2022-10-07T18:16:43.180Z,98604.75
2022-10-07T18:19:49.220Z,98600.56
2022-10-07T18:23:05.309Z,98605.94
2022-10-07T18:26:15.967Z,98595.13
2022-10-07T18:29:24.308Z,98594.63
2022-10-07T18:32:30.479Z,98598.53
2022-10-07T18:35:36.251Z,98590.09
2022-10-07T18:38:44.792Z,98581.72
2022-10-07T18:41:50.616Z,98584.56
2022-10-07T18:44:58.863Z,98585.84
2022-10-07T18:48:11.261Z,98579.19
2022-10-07T18:51:20.529Z,98580.50
2022-10-07T18:54:27.970Z,98586.94
2022-10-07T18:57:34.232Z,98594.06
2022-10-07T19:00:46.963Z,98580.47
2022-10-07T19:04:00.500Z,98586.59
2022-10-07T19:07:06.760Z,98582.97
2022-10-07T19:10:13.387Z,98579.09
2022-10-07T19:13:32.939Z,98583.69
2022-10-07T19:16:44.281Z,98579.09
2022-10-07T19:19:50.520Z,98571.53
2022-10-07T19:22:56.648Z,98576.63
2022-10-07T19:26:12.499Z,98570.25
2022-10-07T19:29:20.416Z,98569.28
2022-10-07T19:32:28.620Z,98571.59
2022-10-07T19:35:36.674Z,98565.59
2022-10-07T19:38:45.995Z,98567.19
2022-10-07T19:41:52.921Z,98570.09
2022-10-07T19:45:11.860Z,98565.78
2022-10-07T19:48:20.468Z,98568.34
2022-10-07T19:51:27.286Z,98566.38
2022-10-07T19:54:36.040Z,98562.97
2022-10-07T19:57:41.706Z,98560.03
2022-10-07T20:00:47.537Z,98562.97
2022-10-07T20:04:02.179Z,98558.72
2022-10-07T20:07:07.908Z,98553.47
2022-10-07T20:10:16.474Z,98559.66
2022-10-07T20:13:22.741Z,98558.63
2022-10-07T20:16:31.319Z,98551.81
2022-10-07T20:19:39.571Z,98547.88
2022-10-07T20:22:49.235Z,98554.31
2022-10-07T20:25:55.160Z,98548.06
2022-10-07T20:29:03.981Z,98543.06
2022-10-07T20:32:16.648Z,98542.25
2022-10-07T20:35:24.952Z,98546.13
2022-10-07T20:38:50.669Z,98537.00
2022-10-07T20:42:09.905Z,98532.41
2022-10-07T20:45:18.028Z,98541.66
2022-10-07T20:48:23.734Z,98535.94
2022-10-07T20:51:35.348Z,98534.66
2022-10-07T20:54:40.926Z,98535.25
2022-10-07T20:57:47.278Z,98545.94
2022-10-07T21:00:52.994Z,98534.69
2022-10-07T21:03:59.229Z,98544.81
2022-10-07T21:07:08.384Z,98534.59
2022-10-07T21:10:14.336Z,98539.03
2022-10-07T21:13:21.837Z,98542.91
2022-10-07T21:16:37.326Z,98540.81
2022-10-07T21:19:46.630Z,98543.59
2022-10-07T21:22:55.706Z,98541.78
2022-10-07T21:26:04.794Z,98542.13
2022-10-07T21:29:11.044Z,98535.38
2022-10-07T21:32:16.584Z,98545.91
2022-10-07T21:35:38.329Z,98536.50
2022-10-07T21:38:48.445Z,98538.19
2022-10-07T21:41:54.035Z,98533.94
2022-10-07T21:44:59.475Z,98531.34
2022-10-07T21:48:05.069Z,98527.56
2022-10-07T21:51:14.267Z,98531.72
2022-10-07T21:54:22.522Z,98521.03
2022-10-07T21:57:28.175Z,98526.16
2022-10-07T22:00:36.385Z,98510.22
2022-10-07T22:03:42.315Z,98516.28
2022-10-07T22:07:01.190Z,98511.41
2022-10-07T22:10:11.656Z,98511.09
2022-10-07T22:13:17.175Z,98506.22
2022-10-07T22:16:26.215Z,98500.88
2022-10-07T22:19:31.764Z,98499.91
2022-10-07T22:22:37.311Z,98494.56
2022-10-07T22:25:52.783Z,98496.66
2022-10-07T22:28:59.209Z,98496.81
2022-10-07T22:32:04.720Z,98487.41
2022-10-07T22:35:24.019Z,98488.63
2022-10-07T22:38:32.258Z,98484.28
2022-10-07T22:41:40.545Z,98485.78
2022-10-07T22:44:46.177Z,98490.22
2022-10-07T22:47:53.068Z,98481.53
2022-10-07T22:51:07.641Z,98468.56
2022-10-07T22:54:16.059Z,98472.81
2022-10-07T22:57:25.103Z,98470.34
2022-10-07T23:00:30.975Z,98476.53
2022-10-07T23:03:38.635Z,98471.28
2022-10-07T23:06:49.408Z,98464.47
2022-10-07T23:09:55.083Z,98466.50
2022-10-07T23:13:03.775Z,98469.88
2022-10-07T23:16:15.548Z,98469.59
2022-10-07T23:19:21.283Z,98466.09
2022-10-07T23:22:26.933Z,98462.50
2022-10-07T23:25:32.526Z,98454.66
2022-10-07T23:28:42.008Z,98457.53
2022-10-07T23:31:47.687Z,98450.16
2022-10-07T23:34:56.352Z,98460.09
2022-10-07T23:38:14.297Z,98447.63
2022-10-07T23:41:24.478Z,98450.31
2022-10-07T23:44:32.634Z,98444.22
2022-10-07T23:47:38.598Z,98443.22
2022-10-07T23:50:46.649Z,98444.25
2022-10-07T23:53:53.299Z,98449.72
2022-10-07T23:56:58.891Z,98440.50
